createdAt,value
2023-02-11T00:01:36.564Z,102863.63
2023-02-11T00:04:06.204Z,102854.88
2023-02-11T00:06:35.704Z,102859.41
2023-02-11T00:09:04.978Z,102863.91
2023-02-11T00:11:33.858Z,102866.72
2023-02-11T00:14:04.710Z,102865.81
2023-02-11T00:16:33.711Z,102861.53
2023-02-11T00:19:02.878Z,102860.78
2023-02-11T00:21:31.804Z,102859.13
2023-02-11T00:24:02.464Z,102866.28
2023-02-11T00:26:34.168Z,102873.50
2023-02-11T00:29:03.090Z,102866.41
2023-02-11T00:31:34.232Z,102858.59
2023-02-11T00:34:03.008Z,102853.44
2023-02-11T00:36:32.018Z,102855.31
2023-02-11T00:39:00.761Z,102854.41
2023-02-11T00:41:30.201Z,102844.03
2023-02-11T00:44:02.375Z,102860.69
2023-02-11T00:46:31.265Z,102855.63
2023-02-11T00:48:59.759Z,102853.97
2023-02-11T00:51:29.037Z,102853.97
2023-02-11T00:53:57.827Z,102854.09
2023-02-11T00:56:27.022Z,102856.81
2023-02-11T00:58:57.925Z,102858.66
2023-02-11T01:01:26.883Z,102853.47
2023-02-11T01:03:55.433Z,102857.13
2023-02-11T01:06:25.574Z,102850.06
2023-02-11T01:08:54.166Z,102855.47
2023-02-11T01:11:23.135Z,102847.56
2023-02-11T01:13:51.646Z,102852.06
2023-02-11T01:16:20.834Z,102835.50
2023-02-11T01:18:49.363Z,102841.63
2023-02-11T01:21:19.716Z,102838.16
2023-02-11T01:23:48.200Z,102838.31
2023-02-11T01:26:17.036Z,102843.59
2023-02-11T01:28:45.455Z,102840.25
2023-02-11T01:31:14.652Z,102844.72
2023-02-11T01:33:43.151Z,102835.94
2023-02-11T01:36:12.116Z,102833.31
2023-02-11T01:38:41.354Z,102843.03
2023-02-11T01:41:12.076Z,102845.81
2023-02-11T01:43:45.431Z,102849.38
2023-02-11T01:46:14.478Z,102847.66
2023-02-11T01:48:44.825Z,102837.16
2023-02-11T01:51:17.577Z,102831.06
2023-02-11T01:54:04.915Z,102824.94
2023-02-11T01:56:52.667Z,102821.50
2023-02-11T01:59:31.588Z,102823.34
2023-02-11T02:02:03.828Z,102818.91
2023-02-11T02:04:33.798Z,102821.75
2023-02-11T02:07:15.031Z,102825.28
2023-02-11T02:09:52.038Z,102827.03
2023-02-11T02:12:21.387Z,102820.94
2023-02-11T02:14:50.189Z,102826.34
2023-02-11T02:17:32.845Z,102829.94
2023-02-11T02:20:23.231Z,102825.59
2023-02-11T02:23:10.865Z,102821.22
2023-02-11T02:26:05.034Z,102825.72
2023-02-11T02:28:56.359Z,102825.78
2023-02-11T02:31:47.518Z,102818.78
2023-02-11T02:34:20.415Z,102814.44
2023-02-11T02:36:53.621Z,102815.34
2023-02-11T02:39:27.361Z,102811.88
2023-02-11T02:41:56.100Z,102815.38
2023-02-11T02:44:25.124Z,102807.63
2023-02-11T02:46:53.954Z,102806.72
2023-02-11T02:49:22.984Z,102803.28
2023-02-11T02:52:18.834Z,102803.28
2023-02-11T02:55:02.912Z,102801.56
2023-02-11T02:57:54.321Z,102797.22
2023-02-11T03:00:44.589Z,102791.06
2023-02-11T03:03:24.717Z,102780.53
2023-02-11T03:06:07.765Z,102780.63
2023-02-11T03:08:47.460Z,102791.22
2023-02-11T03:11:17.657Z,102778.88
2023-02-11T03:13:46.508Z,102775.41
2023-02-11T03:16:23.782Z,102788.66
2023-02-11T03:19:04.283Z,102780.81
2023-02-11T03:21:33.316Z,102778.25
2023-02-11T03:24:03.386Z,102772.06
2023-02-11T03:26:41.438Z,102777.38
2023-02-11T03:29:16.168Z,102777.44
2023-02-11T03:32:05.765Z,102770.47
2023-02-11T03:34:48.174Z,102768.75
2023-02-11T03:37:35.230Z,102767.94
2023-02-11T03:40:05.489Z,102766.22
2023-02-11T03:42:37.885Z,102764.50
2023-02-11T03:45:09.279Z,102761.84
2023-02-11T03:47:40.660Z,102763.69
2023-02-11T03:50:10.959Z,102752.34
2023-02-11T03:52:40.336Z,102761.16
2023-02-11T03:55:19.239Z,102754.19
2023-02-11T03:57:48.724Z,102758.59
2023-02-11T04:00:17.556Z,102744.44
2023-02-11T04:02:46.563Z,102745.50
2023-02-11T04:05:16.665Z,102756.84
2023-02-11T04:07:45.655Z,102755.91
2023-02-11T04:10:14.471Z,102752.22
2023-02-11T04:12:43.772Z,102751.06
2023-02-11T04:15:12.534Z,102754.94
2023-02-11T04:17:41.653Z,102753.75
2023-02-11T04:20:10.901Z,102745.75
2023-02-11T04:22:40.305Z,102738.50
2023-02-11T04:25:09.644Z,102738.16
2023-02-11T04:27:38.766Z,102741.50
2023-02-11T04:30:08.028Z,102740.28
2023-02-11T04:32:37.184Z,102731.13
2023-02-11T04:35:06.491Z,102724.31
2023-02-11T04:37:35.928Z,102724.06
2023-02-11T04:40:04.866Z,102722.44
2023-02-11T04:42:33.661Z,102716.28
2023-02-11T04:45:02.100Z,102711.13
2023-02-11T04:47:30.874Z,102715.50
2023-02-11T04:49:59.204Z,102719.88
2023-02-11T04:52:27.941Z,102710.66
2023-02-11T04:54:56.293Z,102721.03
2023-02-11T04:57:25.002Z,102718.44
2023-02-11T04:59:53.332Z,102711.75
2023-02-11T05:02:22.067Z,102724.00
2023-02-11T05:04:50.439Z,102718.50
2023-02-11T05:07:19.162Z,102733.75
2023-02-11T05:09:47.539Z,102733.75
2023-02-11T05:12:16.524Z,102736.50
2023-02-11T05:14:44.845Z,102722.03
2023-02-11T05:17:13.431Z,102717.94
2023-02-11T05:19:42.898Z,102721.47
2023-02-11T05:22:11.665Z,102721.91
2023-02-11T05:24:40.109Z,102720.66
2023-02-11T05:27:08.729Z,102719.41
2023-02-11T05:29:37.168Z,102715.47
2023-02-11T05:32:07.480Z,102712.66
2023-02-11T05:34:36.707Z,102724.69
2023-02-11T05:37:05.514Z,102718.84
2023-02-11T05:39:33.888Z,102717.97
2023-02-11T05:42:02.569Z,102714.53
2023-02-11T05:44:30.888Z,102722.75
2023-02-11T05:46:59.558Z,102718.97
2023-02-11T05:49:27.833Z,102717.78
2023-02-11T05:51:56.480Z,102720.38
2023-02-11T05:54:24.804Z,102718.88
2023-02-11T05:56:54.028Z,102718.09
2023-02-11T05:59:22.299Z,102714.69
2023-02-11T06:01:50.970Z,102709.38
2023-02-11T06:04:19.357Z,102709.94
2023-02-11T06:06:48.159Z,102705.44
2023-02-11T06:09:16.591Z,102711.25
2023-02-11T06:11:45.240Z,102707.44
2023-02-11T06:14:14.748Z,102699.34
2023-02-11T06:16:43.414Z,102702.19
2023-02-11T06:19:12.642Z,102708.22
2023-02-11T06:21:44.067Z,102699.47
2023-02-11T06:24:13.170Z,102691.97
2023-02-11T06:26:41.753Z,102693.28
2023-02-11T06:29:10.173Z,102706.41
2023-02-11T06:31:39.652Z,102692.66
2023-02-11T06:34:09.918Z,102701.16
2023-02-11T06:36:41.721Z,102687.88
2023-02-11T06:39:10.609Z,102688.25
2023-02-11T06:41:39.375Z,102699.63
2023-02-11T06:44:07.936Z,102704.16
2023-02-11T06:46:36.718Z,102697.81
2023-02-11T06:49:05.166Z,102706.44
2023-02-11T06:51:33.878Z,102703.06
2023-02-11T06:54:02.270Z,102697.88
2023-02-11T06:56:30.995Z,102697.03
2023-02-11T06:58:59.440Z,102707.75
2023-02-11T07:01:28.526Z,102713.25
2023-02-11T07:03:56.968Z,102719.16
2023-02-11T07:06:28.295Z,102713.06
2023-02-11T07:08:56.852Z,102705.56
2023-02-11T07:11:28.038Z,102701.41
2023-02-11T07:14:01.171Z,102707.13
2023-02-11T07:16:29.998Z,102703.06
2023-02-11T07:18:58.698Z,102700.72
2023-02-11T07:21:27.497Z,102707.97
2023-02-11T07:23:55.912Z,102718.00
2023-02-11T07:26:26.007Z,102718.41
2023-02-11T07:28:54.506Z,102725.59
2023-02-11T07:31:26.476Z,102720.72
2023-02-11T07:33:56.901Z,102727.91
2023-02-11T07:36:26.353Z,102722.94
2023-02-11T07:38:54.750Z,102737.38
2023-02-11T07:41:24.942Z,102736.75
2023-02-11T07:43:53.365Z,102728.19
2023-02-11T07:46:25.244Z,102730.00
2023-02-11T07:48:53.830Z,102726.66
2023-02-11T07:51:28.294Z,102727.13
2023-02-11T07:53:58.338Z,102719.06
2023-02-11T07:56:27.516Z,102724.72
2023-02-11T07:58:57.021Z,102723.13
2023-02-11T08:01:28.624Z,102728.72
2023-02-11T08:03:58.474Z,102727.06
2023-02-11T08:06:30.528Z,102736.97
2023-02-11T08:08:59.206Z,102740.78
2023-02-11T08:11:28.988Z,102733.81
2023-02-11T08:13:57.552Z,102734.03
2023-02-11T08:16:34.776Z,102738.53
2023-02-11T08:19:06.808Z,102730.03
2023-02-11T08:21:35.518Z,102742.38
2023-02-11T08:24:04.149Z,102741.66
2023-02-11T08:26:35.117Z,102740.00
2023-02-11T08:29:08.362Z,102737.47
2023-02-11T08:31:40.483Z,102731.31
2023-02-11T08:34:10.308Z,102734.16
2023-02-11T08:36:39.713Z,102724.63
2023-02-11T08:39:19.697Z,102736.09
2023-02-11T08:41:51.425Z,102737.88
2023-02-11T08:44:20.821Z,102732.81
2023-02-11T08:46:50.197Z,102740.66
2023-02-11T08:49:18.920Z,102734.34
2023-02-11T08:51:47.732Z,102729.25
2023-02-11T08:54:16.276Z,102736.13
2023-02-11T08:56:45.040Z,102749.03
2023-02-11T08:59:14.922Z,102751.88
2023-02-11T09:01:44.661Z,102752.44
2023-02-11T09:04:13.922Z,102761.13
2023-02-11T09:06:42.648Z,102764.28
2023-02-11T09:09:13.744Z,102763.97
2023-02-11T09:11:43.391Z,102774.19
2023-02-11T09:14:22.602Z,102767.28
2023-02-11T09:16:52.056Z,102761.53
2023-02-11T09:19:21.078Z,102752.53
2023-02-11T09:21:49.836Z,102762.81
2023-02-11T09:24:18.767Z,102763.50
2023-02-11T09:26:47.473Z,102766.94
2023-02-11T09:29:15.840Z,102764.81
2023-02-11T09:31:44.697Z,102751.31
2023-02-11T09:34:13.473Z,102753.69
2023-02-11T09:36:42.534Z,102747.31
2023-02-11T09:39:17.212Z,102749.03
2023-02-11T09:42:07.899Z,102747.34
2023-02-11T09:44:37.229Z,102742.31
2023-02-11T09:47:28.788Z,102752.94
2023-02-11T09:50:29.561Z,102763.72
2023-02-11T09:53:25.979Z,102754.31
2023-02-11T09:55:57.370Z,102768.31
2023-02-11T09:58:35.341Z,102768.38
2023-02-11T10:01:24.975Z,102766.53
2023-02-11T10:04:50.139Z,102777.03
2023-02-11T10:07:32.009Z,102762.94
2023-02-11T10:10:28.260Z,102778.41
2023-02-11T10:13:24.251Z,102771.06
2023-02-11T10:16:06.759Z,102768.41
2023-02-11T10:19:18.371Z,102768.81
2023-02-11T10:22:07.396Z,102766.09
2023-02-11T10:24:35.843Z,102763.81
2023-02-11T10:27:16.990Z,102767.34
2023-02-11T10:30:02.830Z,102766.25
2023-02-11T10:32:33.530Z,102759.84
2023-02-11T10:35:10.960Z,102750.00
2023-02-11T10:37:39.810Z,102762.44
2023-02-11T10:40:15.535Z,102756.16
2023-02-11T10:42:48.682Z,102750.81
2023-02-11T10:45:52.763Z,102759.91
2023-02-11T10:48:44.155Z,102746.69
2023-02-11T10:51:34.569Z,102756.78
2023-02-11T10:54:13.831Z,102750.44
2023-02-11T10:56:50.911Z,102753.50
2023-02-11T10:59:22.490Z,102734.53
2023-02-11T11:01:57.331Z,102735.63
2023-02-11T11:04:35.764Z,102728.25
2023-02-11T11:07:31.463Z,102724.03
2023-02-11T11:10:12.153Z,102718.78
2023-02-11T11:12:47.534Z,102724.56
2023-02-11T11:15:28.185Z,102719.94
2023-02-11T11:18:21.885Z,102710.84
2023-02-11T11:21:02.133Z,102701.50
2023-02-11T11:23:30.966Z,102706.91
2023-02-11T11:26:11.333Z,102681.47
2023-02-11T11:28:52.620Z,102678.88
2023-02-11T11:31:28.655Z,102671.50
2023-02-11T11:33:59.447Z,102676.81
2023-02-11T11:36:37.251Z,102661.00
2023-02-11T11:39:21.108Z,102671.28
2023-02-11T11:41:58.221Z,102659.78
2023-02-11T11:44:40.317Z,102669.81
2023-02-11T11:47:08.994Z,102675.44
2023-02-11T11:50:01.184Z,102660.97
2023-02-11T11:52:34.742Z,102667.38
2023-02-11T11:55:08.129Z,102662.47
2023-02-11T11:57:38.832Z,102662.16
2023-02-11T12:00:17.753Z,102660.97
2023-02-11T12:03:09.964Z,102659.72
2023-02-11T12:06:00.501Z,102655.72
2023-02-11T12:09:01.284Z,102660.91
2023-02-11T12:12:23.825Z,102652.84
2023-02-11T12:15:13.863Z,102649.53
2023-02-11T12:17:52.087Z,102640.03
2023-02-11T12:20:56.179Z,102637.13
2023-02-11T12:24:16.939Z,102631.78
2023-02-11T12:27:33.094Z,102624.75
2023-02-11T12:30:22.736Z,102621.75
2023-02-11T12:33:17.000Z,102619.06
2023-02-11T12:36:08.550Z,102615.91
2023-02-11T12:39:03.899Z,102605.66
2023-02-11T12:42:32.471Z,102610.09
2023-02-11T12:45:16.418Z,102600.75
2023-02-11T12:47:49.145Z,102608.53
2023-02-11T12:50:38.828Z,102599.84
2023-02-11T12:53:48.143Z,102609.66
2023-02-11T12:56:40.673Z,102598.22
2023-02-11T12:59:21.696Z,102588.69
2023-02-11T13:01:50.447Z,102577.69
2023-02-11T13:04:43.976Z,102574.16
2023-02-11T13:07:48.968Z,102565.56
2023-02-11T13:10:55.127Z,102564.00
2023-02-11T13:13:33.369Z,102571.13
2023-02-11T13:16:08.001Z,102567.00
2023-02-11T13:19:01.916Z,102568.94
2023-02-11T13:21:57.499Z,102557.03
2023-02-11T13:24:44.813Z,102563.19
2023-02-11T13:27:42.963Z,102568.53
2023-02-11T13:30:35.700Z,102546.63
2023-02-11T13:33:26.838Z,102550.06
2023-02-11T13:35:58.285Z,102551.09
2023-02-11T13:38:30.703Z,102551.88
2023-02-11T13:41:21.313Z,102544.13
2023-02-11T13:44:02.348Z,102540.53
2023-02-11T13:47:06.201Z,102533.50
2023-02-11T13:49:42.305Z,102534.50
2023-02-11T13:52:23.717Z,102533.81
2023-02-11T13:54:53.257Z,102525.06
2023-02-11T13:57:21.834Z,102526.13
2023-02-11T13:59:52.846Z,102528.66
2023-02-11T14:02:54.936Z,102524.44
2023-02-11T14:05:51.535Z,102521.78
2023-02-11T14:08:43.297Z,102524.44
2023-02-11T14:11:35.428Z,102534.28
2023-02-11T14:14:33.726Z,102530.84
2023-02-11T14:17:19.188Z,102529.22
2023-02-11T14:19:49.590Z,102516.94
2023-02-11T14:22:29.807Z,102517.88
2023-02-11T14:25:01.260Z,102509.03
2023-02-11T14:27:44.691Z,102507.31
2023-02-11T14:30:24.379Z,102502.31
2023-02-11T14:33:07.299Z,102500.66
2023-02-11T14:36:00.364Z,102501.44
2023-02-11T14:38:58.393Z,102495.97
2023-02-11T14:41:46.419Z,102488.09
2023-02-11T14:44:21.620Z,102491.00
2023-02-11T14:46:52.759Z,102498.97
2023-02-11T14:49:36.824Z,102492.09
2023-02-11T14:52:30.509Z,102486.00
2023-02-11T14:55:09.483Z,102479.81
2023-02-11T14:57:38.200Z,102471.22
2023-02-11T15:00:19.935Z,102482.38
2023-02-11T15:02:49.117Z,102487.09
2023-02-11T15:05:27.436Z,102468.81
2023-02-11T15:08:02.150Z,102474.78
2023-02-11T15:10:52.348Z,102468.81
2023-02-11T15:13:23.220Z,102474.13
2023-02-11T15:15:51.751Z,102470.50
2023-02-11T15:18:24.561Z,102482.88
2023-02-11T15:20:53.398Z,102471.66
2023-02-11T15:23:25.711Z,102467.38
2023-02-11T15:25:56.588Z,102465.50
2023-02-11T15:28:33.565Z,102456.91
2023-02-11T15:31:13.138Z,102452.47
2023-02-11T15:33:41.986Z,102448.16
2023-02-11T15:36:12.530Z,102452.69
2023-02-11T15:38:41.396Z,102454.41
2023-02-11T15:41:36.992Z,102457.84
2023-02-11T15:44:05.720Z,102453.16
2023-02-11T15:46:38.999Z,102449.25
2023-02-11T15:49:16.480Z,102447.84
2023-02-11T15:51:45.952Z,102459.97
2023-02-11T15:54:27.223Z,102456.91
2023-02-11T15:57:01.928Z,102451.47
2023-02-11T15:59:36.092Z,102442.00
2023-02-11T16:02:22.066Z,102449.97
2023-02-11T16:04:56.964Z,102448.94
2023-02-11T16:08:34.826Z,102447.06
2023-02-11T16:11:09.162Z,102449.78
2023-02-11T16:13:47.577Z,102438.69
2023-02-11T16:16:33.809Z,102448.53
2023-02-11T16:19:05.179Z,102448.53
2023-02-11T16:21:39.555Z,102449.22
2023-02-11T16:24:08.470Z,102445.28
2023-02-11T16:26:41.283Z,102440.59
2023-02-11T16:29:20.592Z,102433.81
2023-02-11T16:31:50.557Z,102433.66
2023-02-11T16:34:24.167Z,102439.31
2023-02-11T16:36:53.037Z,102444.09
2023-02-11T16:39:24.864Z,102445.16
2023-02-11T16:41:53.816Z,102445.50
2023-02-11T16:44:22.255Z,102442.34
2023-02-11T16:46:52.463Z,102453.47
2023-02-11T16:49:26.492Z,102448.44
2023-02-11T16:51:59.005Z,102443.72
2023-02-11T16:54:27.925Z,102449.44
2023-02-11T16:56:56.777Z,102454.16
2023-02-11T16:59:25.247Z,102454.34
2023-02-11T17:01:54.309Z,102455.53
2023-02-11T17:04:26.271Z,102456.16
2023-02-11T17:06:57.988Z,102444.38
2023-02-11T17:09:30.648Z,102450.63
2023-02-11T17:12:00.432Z,102458.19
2023-02-11T17:14:28.910Z,102451.84
2023-02-11T17:16:57.831Z,102462.13
2023-02-11T17:19:26.208Z,102467.19
2023-02-11T17:21:55.275Z,102472.50
2023-02-11T17:24:23.793Z,102466.41
2023-02-11T17:26:52.784Z,102462.00
2023-02-11T17:29:24.064Z,102464.34
2023-02-11T17:31:53.480Z,102473.97
2023-02-11T17:34:22.776Z,102473.63
2023-02-11T17:36:52.100Z,102471.25
2023-02-11T17:39:21.344Z,102470.41
2023-02-11T17:41:50.299Z,102466.22
2023-02-11T17:44:18.752Z,102470.81
2023-02-11T17:46:47.618Z,102471.69
2023-02-11T17:49:16.687Z,102469.94
2023-02-11T17:51:45.834Z,102472.63
2023-02-11T17:54:17.441Z,102476.28
2023-02-11T17:56:46.461Z,102463.84
2023-02-11T17:59:14.905Z,102468.56
2023-02-11T18:01:44.231Z,102461.13
2023-02-11T18:04:15.662Z,102460.63
2023-02-11T18:06:44.733Z,102461.16
2023-02-11T18:09:13.361Z,102459.91
2023-02-11T18:11:42.312Z,102463.03
2023-02-11T18:14:11.057Z,102460.44
2023-02-11T18:16:43.210Z,102452.72
2023-02-11T18:19:12.622Z,102453.97
2023-02-11T18:21:41.796Z,102459.31
2023-02-11T18:24:10.416Z,102460.06
2023-02-11T18:26:39.219Z,102463.72
2023-02-11T18:29:07.828Z,102468.84
2023-02-11T18:31:36.743Z,102459.91
2023-02-11T18:34:07.629Z,102459.22
2023-02-11T18:36:36.938Z,102449.94
2023-02-11T18:39:05.970Z,102448.03
2023-02-11T18:41:35.240Z,102463.31
2023-02-11T18:44:05.160Z,102469.03
2023-02-11T18:46:59.533Z,102459.97
2023-02-11T18:49:28.075Z,102464.34
2023-02-11T18:51:58.797Z,102464.34
2023-02-11T18:54:27.419Z,102454.06
2023-02-11T18:56:56.284Z,102453.00
2023-02-11T18:59:24.825Z,102458.88
2023-02-11T19:01:53.602Z,102458.47
2023-02-11T19:04:23.465Z,102465.84
2023-02-11T19:06:52.513Z,102461.47
2023-02-11T19:09:21.163Z,102459.66
2023-02-11T19:11:50.590Z,102464.47
2023-02-11T19:14:32.304Z,102474.69
2023-02-11T19:17:04.094Z,102470.47
2023-02-11T19:19:34.336Z,102466.28
2023-02-11T19:22:03.926Z,102470.66
2023-02-11T19:24:32.817Z,102469.28
2023-02-11T19:27:03.437Z,102473.00
2023-02-11T19:29:35.489Z,102472.44
2023-02-11T19:32:06.186Z,102466.19
2023-02-11T19:34:41.427Z,102465.59
2023-02-11T19:37:12.941Z,102467.13
2023-02-11T19:39:42.458Z,102471.03
2023-02-11T19:42:12.376Z,102451.50
2023-02-11T19:44:41.123Z,102460.09
2023-02-11T19:47:10.714Z,102457.34
2023-02-11T19:49:39.303Z,102459.50
2023-02-11T19:52:08.303Z,102460.94
2023-02-11T19:54:38.052Z,102457.75
2023-02-11T19:57:06.975Z,102458.91
2023-02-11T19:59:35.566Z,102458.34
2023-02-11T20:02:04.572Z,102467.25
2023-02-11T20:04:34.332Z,102461.84
2023-02-11T20:07:03.273Z,102460.16
2023-02-11T20:09:32.078Z,102450.72
2023-02-11T20:12:01.041Z,102450.28
2023-02-11T20:14:29.743Z,102464.63
2023-02-11T20:16:58.704Z,102454.75
2023-02-11T20:19:28.149Z,102452.16
2023-02-11T20:21:57.190Z,102446.16
2023-02-11T20:24:25.882Z,102457.00
2023-02-11T20:26:56.191Z,102452.03
2023-02-11T20:29:25.116Z,102449.44
2023-02-11T20:31:54.664Z,102448.91
2023-02-11T20:34:23.538Z,102454.59
2023-02-11T20:36:52.999Z,102446.13
2023-02-11T20:39:22.984Z,102442.84
2023-02-11T20:41:52.545Z,102438.22
2023-02-11T20:44:24.281Z,102448.44
2023-02-11T20:46:54.579Z,102454.53
2023-02-11T20:49:25.000Z,102437.97
2023-02-11T20:51:54.421Z,102442.72
2023-02-11T20:54:23.699Z,102442.41
2023-02-11T20:56:54.109Z,102443.41
2023-02-11T20:59:22.917Z,102444.47
2023-02-11T21:01:54.337Z,102448.22
2023-02-11T21:04:28.554Z,102448.44
2023-02-11T21:07:00.380Z,102451.56
2023-02-11T21:09:31.750Z,102436.19
2023-02-11T21:12:01.196Z,102448.41
2023-02-11T21:14:30.273Z,102442.28
2023-02-11T21:16:59.296Z,102441.88
2023-02-11T21:19:27.942Z,102442.06
2023-02-11T21:21:57.570Z,102441.34
2023-02-11T21:24:26.069Z,102439.22
2023-02-11T21:26:55.132Z,102437.41
2023-02-11T21:29:23.616Z,102440.69
2023-02-11T21:31:52.862Z,102449.53
2023-02-11T21:34:21.547Z,102450.66
2023-02-11T21:36:51.521Z,102448.25
2023-02-11T21:39:20.613Z,102450.41
2023-02-11T21:41:49.588Z,102446.97
2023-02-11T21:44:18.786Z,102434.69
2023-02-11T21:46:47.821Z,102447.03
2023-02-11T21:49:16.378Z,102436.31
2023-02-11T21:51:45.266Z,102440.84
2023-02-11T21:54:13.978Z,102434.53
2023-02-11T21:56:42.816Z,102441.38
2023-02-11T21:59:14.144Z,102440.19
2023-02-11T22:01:43.026Z,102441.72
2023-02-11T22:04:11.674Z,102455.88
2023-02-11T22:06:40.509Z,102452.84
2023-02-11T22:09:10.001Z,102458.81
2023-02-11T22:11:38.882Z,102446.84
2023-02-11T22:14:07.430Z,102453.56
2023-02-11T22:16:36.682Z,102451.59
2023-02-11T22:19:07.647Z,102440.50
2023-02-11T22:21:36.598Z,102441.56
2023-02-11T22:24:05.617Z,102440.78
2023-02-11T22:26:34.621Z,102436.84
2023-02-11T22:29:03.383Z,102446.63
2023-02-11T22:31:33.922Z,102439.16
2023-02-11T22:34:03.332Z,102440.38
2023-02-11T22:36:38.303Z,102440.44
2023-02-11T22:39:16.585Z,102440.72
2023-02-11T22:41:46.189Z,102445.50
2023-02-11T22:44:16.630Z,102444.72
2023-02-11T22:46:45.548Z,102434.44
2023-02-11T22:49:15.233Z,102420.63
2023-02-11T22:51:44.283Z,102445.47
2023-02-11T22:54:17.719Z,102441.44
2023-02-11T22:56:49.826Z,102439.72
2023-02-11T22:59:18.464Z,102438.06
2023-02-11T23:01:47.496Z,102430.28
2023-02-11T23:04:17.092Z,102433.97
2023-02-11T23:06:47.778Z,102430.63
2023-02-11T23:09:16.335Z,102428.19
2023-02-11T23:11:45.277Z,102432.69
2023-02-11T23:14:13.881Z,102427.56
2023-02-11T23:16:43.007Z,102440.16
2023-02-11T23:19:12.561Z,102436.78
2023-02-11T23:21:41.540Z,102435.25
2023-02-11T23:24:14.268Z,102441.59
2023-02-11T23:26:43.260Z,102441.91
2023-02-11T23:29:12.088Z,102438.63
2023-02-11T23:31:44.132Z,102432.75
2023-02-11T23:34:17.318Z,102447.84
2023-02-11T23:36:46.186Z,102445.19
2023-02-11T23:39:15.929Z,102434.81
2023-02-11T23:41:45.685Z,102439.41
2023-02-11T23:44:14.163Z,102439.41
2023-02-11T23:46:43.049Z,102434.44
2023-02-11T23:49:11.427Z,102421.22
2023-02-11T23:51:40.061Z,102428.47
2023-02-11T23:54:12.266Z,102421.78
2023-02-11T23:56:42.550Z,102443.88
2023-02-11T23:59:12.003Z,102442.16
